Hlavní strana
METAR-TAF:

METAR-TAF

Letiště :

Terst / Ronchi dei Legionari, Itálie

zeměpisná šířka: 45-49N, zeměpisná délka: 013-29E, výška: 12 m

Aktuální stav počasí

Zpráva byla vytvořena před 12 minutami, v 10:50 UTC
Východní vítr 8 kt, proměnlivý mezi východoseverovýchodním a jihovýchodním
Teplota 33°C
Vlhkost vzduchu 34%
Tlak 1015 hPa
Viditelnost 10 km a více
Žádná oblačnost pod 1500 m, nevyskytují se cumulonimby.

METAR: LIPQ 201050Z 10008KT 070V140 CAVOK 33/15 Q1015

Čas: 13:02 (11:02 UTC)

Předpověď počasí

Zpráva byla vytvořena před 6 hodinami a 2 minutami, v 05:00 UTC
Předpověď platná od 20 v 06 UTC do 21 v 06 UTC
vítr z různých směrů 5 kt
Viditelnost 10 km a více
Žádná oblačnost pod 1500 m, nevyskytují se cumulonimby.

TAF: LIPQ 200500Z 2006/2106 VRB05KT CAVOK

Stav a předpovědi počasí z více než 4 000 letišť (zprávy METAR a TAF).

Červené a žluté tečky na mapě představují dostupné meteorologické stanice.

Když kurzor umístíte na tečku, zobrazí se název stanice.

Pak kliknutím zobrazíte stav a předpověď počasí.

Chcete-li změnit mapu, kliknutím na zelené tlačítko se znaménkem +mapu přiblížíte, kliknutím na zelené tlačítko se znaménkem – mapu oddálíte a kliknutím na zelené šipky přejdete na sousední mapy.


METAR-TAF: